Time;durP1;ratioP1;P1;durP2;ratioP2;P2;SDS_P1;SDS_P2;PMS_P1;PMS_P2;Temp;Humidity;BMP_temperature;BMP_pressure;BME280_temperature;BME280_humidity;BME280_pressure;Samples;Min_cycle;Max_cycle;Signal;HPM_P1;HPM_P2
2023/05/09 00:00:01;;;;;;;16.08;10.00;;;;;;;;;;5033904;28;20037;-86
2023/05/09 00:02:28;;;;;;;13.63;10.18;;;;;;;;;;5026001;28;20495;-86
2023/05/09 00:04:55;;;;;;;13.38;8.93;;;;;;;;;;5035111;28;20029;-86
2023/05/09 00:07:21;;;;;;;12.82;9.07;;;;;;;;;;5032033;28;20038;-87
2023/05/09 00:09:46;;;;;;;12.70;8.65;;;;;;;;;;5036024;28;20042;-87
2023/05/09 00:12:12;;;;;;;12.65;9.00;;;;;;;;;;5038531;28;20104;-87
2023/05/09 00:14:39;;;;;;;14.55;8.88;;;;;;;;;;5021641;28;20026;-85
2023/05/09 00:17:06;;;;;;;10.55;8.55;;;;;;;;;;5034378;28;20097;-86
2023/05/09 00:19:32;;;;;;;11.82;8.93;;;;;;;;;;5033958;28;20037;-86
2023/05/09 00:21:58;;;;;;;12.27;8.40;;;;;;;;;;5029664;28;20044;-86
2023/05/09 00:24:23;;;;;;;11.90;9.20;;;;;;;;;;5029968;28;20112;-87
2023/05/09 00:26:49;;;;;;;11.18;8.77;;;;;;;;;;5035497;28;20388;-87
2023/05/09 00:29:14;;;;;;;11.40;9.18;;;;;;;;;;5031474;28;20054;-87
2023/05/09 00:31:40;;;;;;;10.43;8.50;;;;;;;;;;5019029;28;20029;-87
2023/05/09 00:34:05;;;;;;;10.95;8.25;;;;;;;;;;5020300;28;20487;-86
2023/05/09 00:36:31;;;;;;;10.85;8.60;;;;;;;;;;5024929;28;20625;-86
2023/05/09 00:38:57;;;;;;;10.45;8.30;;;;;;;;;;5028543;28;20077;-86
2023/05/09 00:41:22;;;;;;;9.65;7.82;;;;;;;;;;5029706;28;20410;-86
2023/05/09 00:43:48;;;;;;;10.15;8.05;;;;;;;;;;5035403;28;20128;-87
2023/05/09 00:46:13;;;;;;;10.85;7.82;;;;;;;;;;5029823;28;20507;-87
2023/05/09 00:48:39;;;;;;;10.88;7.75;;;;;;;;;;5019400;28;20048;-85
2023/05/09 00:51:05;;;;;;;10.15;7.82;;;;;;;;;;5022254;28;20033;-86
2023/05/09 00:53:30;;;;;;;10.10;7.82;;;;;;;;;;5026428;28;20045;-87
2023/05/09 00:55:57;;;;;;;10.27;7.78;;;;;;;;;;5034451;28;20037;-88
2023/05/09 00:58:22;;;;;;;10.93;8.13;;;;;;;;;;5014247;28;20034;-86
2023/05/09 01:00:48;;;;;;;10.70;8.40;;;;;;;;;;5035770;28;20040;-87
2023/05/09 01:03:14;;;;;;;12.40;8.10;;;;;;;;;;5032101;28;20030;-86
2023/05/09 01:05:51;;;;;;;10.82;7.82;;;;;;;;;;5021583;28;20040;-86
2023/05/09 01:08:35;;;;;;;9.55;7.57;;;;;;;;;;5037851;28;20044;-87
2023/05/09 01:11:09;;;;;;;9.45;7.65;;;;;;;;;;5024805;28;20108;-87
2023/05/09 01:13:48;;;;;;;9.50;7.13;;;;;;;;;;5020939;28;20496;-87
2023/05/09 01:16:19;;;;;;;9.68;7.35;;;;;;;;;;5021606;28;20133;-86
2023/05/09 01:19:07;;;;;;;10.65;7.35;;;;;;;;;;5031627;28;20084;-87
2023/05/09 01:21:34;;;;;;;10.98;7.55;;;;;;;;;;5015022;28;20030;-87
2023/05/09 01:24:15;;;;;;;11.25;7.95;;;;;;;;;;5016610;28;20128;-86
2023/05/09 01:26:54;;;;;;;11.55;6.90;;;;;;;;;;5026338;28;20029;-86
2023/05/09 01:29:29;;;;;;;11.60;7.53;;;;;;;;;;5044374;28;20107;-86
2023/05/09 01:31:56;;;;;;;10.70;7.65;;;;;;;;;;5035548;28;20064;-87
2023/05/09 01:34:25;;;;;;;10.93;7.15;;;;;;;;;;5034235;28;20113;-86
2023/05/09 01:36:57;;;;;;;8.85;7.00;;;;;;;;;;5029392;28;20021;-86
2023/05/09 01:39:25;;;;;;;10.30;7.40;;;;;;;;;;5019802;28;20033;-86
2023/05/09 01:41:54;;;;;;;9.50;7.40;;;;;;;;;;5015363;28;20041;-86
2023/05/09 01:44:21;;;;;;;10.38;7.65;;;;;;;;;;5026203;28;20037;-86
2023/05/09 01:46:47;;;;;;;9.65;7.63;;;;;;;;;;5030430;28;20036;-86
2023/05/09 01:49:14;;;;;;;10.57;7.15;;;;;;;;;;5031569;28;20062;-86
2023/05/09 01:51:41;;;;;;;9.90;7.25;;;;;;;;;;5031493;28;20671;-87
2023/05/09 01:54:08;;;;;;;9.88;7.50;;;;;;;;;;5032228;28;20034;-85
2023/05/09 01:56:36;;;;;;;10.45;6.93;;;;;;;;;;5022959;28;20116;-86
2023/05/09 01:59:05;;;;;;;9.93;7.70;;;;;;;;;;5024734;28;20029;-86
2023/05/09 02:01:31;;;;;;;9.07;7.28;;;;;;;;;;5024950;28;20029;-86
2023/05/09 02:03:57;;;;;;;9.07;6.93;;;;;;;;;;5031264;28;20038;-86
2023/05/09 02:06:23;;;;;;;10.02;6.88;;;;;;;;;;5034379;28;20021;-85
2023/05/09 02:08:50;;;;;;;9.63;7.45;;;;;;;;;;5015171;28;20034;-86
2023/05/09 02:11:15;;;;;;;8.77;7.25;;;;;;;;;;5014577;28;20085;-86
2023/05/09 02:13:41;;;;;;;10.75;7.13;;;;;;;;;;5032695;28;20483;-86
2023/05/09 02:16:08;;;;;;;12.18;7.55;;;;;;;;;;5016803;28;20041;-85
2023/05/09 02:18:35;;;;;;;10.20;6.80;;;;;;;;;;5028609;28;20060;-86
2023/05/09 02:21:01;;;;;;;9.73;7.10;;;;;;;;;;5030572;28;20037;-86
2023/05/09 02:23:27;;;;;;;10.82;7.10;;;;;;;;;;5030965;28;20053;-85
2023/05/09 02:25:53;;;;;;;9.43;6.85;;;;;;;;;;5018333;28;20385;-85
2023/05/09 02:28:21;;;;;;;7.93;6.35;;;;;;;;;;5019335;28;20041;-86
2023/05/09 02:30:48;;;;;;;9.63;6.97;;;;;;;;;;5023525;28;20056;-87
2023/05/09 02:33:14;;;;;;;10.57;7.47;;;;;;;;;;5024468;28;20053;-86
2023/05/09 02:35:43;;;;;;;10.23;7.47;;;;;;;;;;5021462;28;20083;-84
2023/05/09 02:38:12;;;;;;;10.93;7.75;;;;;;;;;;5031682;28;20029;-84
2023/05/09 02:40:38;;;;;;;8.88;6.95;;;;;;;;;;5026623;28;20048;-87
2023/05/09 02:43:03;;;;;;;8.00;6.60;;;;;;;;;;5031342;28;20029;-85
2023/05/09 02:45:29;;;;;;;12.07;7.15;;;;;;;;;;5020937;28;20518;-84
2023/05/09 02:47:55;;;;;;;9.43;7.32;;;;;;;;;;5025093;28;20085;-86
2023/05/09 02:50:21;;;;;;;11.85;7.65;;;;;;;;;;5031925;28;20064;-86
2023/05/09 02:52:46;;;;;;;9.63;7.45;;;;;;;;;;5033755;28;20045;-86
2023/05/09 02:55:12;;;;;;;11.57;7.88;;;;;;;;;;5032976;28;20033;-85
2023/05/09 02:57:39;;;;;;;8.98;6.85;;;;;;;;;;5032719;28;20030;-86
2023/05/09 03:00:08;;;;;;;10.55;7.15;;;;;;;;;;5035028;28;20044;-85
2023/05/09 03:02:38;;;;;;;9.63;7.10;;;;;;;;;;5036803;28;20518;-85
2023/05/09 03:05:06;;;;;;;12.25;8.15;;;;;;;;;;5027892;28;20041;-85
2023/05/09 03:07:34;;;;;;;9.10;7.55;;;;;;;;;;5036919;28;20164;-86
2023/05/09 03:09:59;;;;;;;9.13;7.35;;;;;;;;;;5034389;28;20121;-85
2023/05/09 03:12:25;;;;;;;11.27;7.72;;;;;;;;;;5018332;28;20033;-86
2023/05/09 03:14:53;;;;;;;9.18;7.15;;;;;;;;;;5019332;28;20045;-85
2023/05/09 03:17:20;;;;;;;9.57;6.95;;;;;;;;;;5034214;28;20029;-85
2023/05/09 03:19:49;;;;;;;9.65;7.18;;;;;;;;;;5031572;28;20438;-85
2023/05/09 03:22:18;;;;;;;9.30;6.68;;;;;;;;;;5027548;28;20116;-86
2023/05/09 03:24:52;;;;;;;8.60;6.97;;;;;;;;;;5022692;28;20022;-86
2023/05/09 03:27:18;;;;;;;9.35;7.13;;;;;;;;;;5037139;28;20515;-86
2023/05/09 03:29:44;;;;;;;9.95;6.95;;;;;;;;;;5019485;28;20117;-86
2023/05/09 03:32:11;;;;;;;9.82;8.07;;;;;;;;;;5020326;28;20091;-85
2023/05/09 03:34:36;;;;;;;11.90;8.68;;;;;;;;;;5023951;28;20045;-84
2023/05/09 03:37:02;;;;;;;10.18;7.35;;;;;;;;;;5027003;28;20033;-86
2023/05/09 03:39:29;;;;;;;10.07;7.70;;;;;;;;;;5035317;28;20689;-85
2023/05/09 03:41:56;;;;;;;9.50;7.53;;;;;;;;;;5031087;28;20490;-85
2023/05/09 03:44:21;;;;;;;12.43;7.88;;;;;;;;;;5036487;28;20030;-85
2023/05/09 03:46:47;;;;;;;9.80;7.90;;;;;;;;;;5025066;28;20021;-86
2023/05/09 03:49:13;;;;;;;9.52;7.47;;;;;;;;;;5020657;28;20106;-85
2023/05/09 03:51:39;;;;;;;13.13;8.43;;;;;;;;;;5034271;28;20395;-85
2023/05/09 03:54:08;;;;;;;15.07;10.27;;;;;;;;;;5031239;28;20613;-85
2023/05/09 03:56:34;;;;;;;15.13;9.30;;;;;;;;;;5030365;28;20029;-85
2023/05/09 03:58:59;;;;;;;11.57;8.98;;;;;;;;;;5031434;28;20481;-84
2023/05/09 04:01:26;;;;;;;16.15;9.20;;;;;;;;;;5020132;28;20074;-86
2023/05/09 04:03:53;;;;;;;14.65;10.35;;;;;;;;;;5034070;28;20045;-84
2023/05/09 04:06:19;;;;;;;9.70;7.47;;;;;;;;;;5019307;28;20354;-85
2023/05/09 04:08:45;;;;;;;10.90;7.57;;;;;;;;;;5022832;28;20152;-86
2023/05/09 04:11:11;;;;;;;10.15;7.60;;;;;;;;;;5029580;28;20029;-86
2023/05/09 04:13:39;;;;;;;9.90;7.68;;;;;;;;;;5032321;28;20033;-86
2023/05/09 04:16:17;;;;;;;9.85;7.80;;;;;;;;;;5033602;28;20099;-86
2023/05/09 04:18:43;;;;;;;9.70;7.85;;;;;;;;;;5019346;28;20033;-84
2023/05/09 04:21:08;;;;;;;9.70;7.47;;;;;;;;;;5034856;28;20044;-84
2023/05/09 04:23:34;;;;;;;10.40;7.88;;;;;;;;;;5034981;28;20124;-85
2023/05/09 04:25:59;;;;;;;10.93;7.78;;;;;;;;;;5033723;28;20038;-84
2023/05/09 04:28:25;;;;;;;12.82;7.88;;;;;;;;;;5036321;28;20739;-86
2023/05/09 04:30:52;;;;;;;12.60;8.15;;;;;;;;;;5034681;28;20025;-86
2023/05/09 04:33:18;;;;;;;11.02;8.23;;;;;;;;;;5035551;28;20038;-85
2023/05/09 04:35:47;;;;;;;10.57;7.80;;;;;;;;;;5027026;28;20029;-86
2023/05/09 04:38:13;;;;;;;10.43;7.72;;;;;;;;;;5035682;28;20029;-85
2023/05/09 04:40:39;;;;;;;13.23;8.55;;;;;;;;;;5036446;28;20101;-84
2023/05/09 04:43:05;;;;;;;14.63;9.18;;;;;;;;;;5024850;28;20487;-86
2023/05/09 04:45:31;;;;;;;13.57;8.63;;;;;;;;;;5026667;28;20036;-85
2023/05/09 04:47:58;;;;;;;11.45;8.40;;;;;;;;;;5036485;28;20029;-86
2023/05/09 04:50:23;;;;;;;13.45;8.88;;;;;;;;;;5030195;28;20128;-86
2023/05/09 04:52:49;;;;;;;12.65;8.82;;;;;;;;;;5035354;28;20044;-86
2023/05/09 04:55:15;;;;;;;10.43;8.40;;;;;;;;;;5033373;28;20133;-83
2023/05/09 04:57:44;;;;;;;12.52;9.00;;;;;;;;;;5034001;28;20049;-85
2023/05/09 05:00:11;;;;;;;9.38;6.75;;;;;;;;;;5034253;28;20483;-84
2023/05/09 05:02:37;;;;;;;11.65;6.90;;;;;;;;;;5013114;28;20035;-80
2023/05/09 05:05:04;;;;;;;11.85;8.15;;;;;;;;;;5040392;28;20025;-84
2023/05/09 05:07:32;;;;;;;12.93;9.07;;;;;;;;;;5038783;28;20120;-83
2023/05/09 05:09:59;;;;;;;11.93;9.07;;;;;;;;;;5037959;28;20089;-85
2023/05/09 05:12:24;;;;;;;13.77;9.90;;;;;;;;;;5038881;28;20121;-85
2023/05/09 05:14:50;;;;;;;14.55;9.93;;;;;;;;;;5038933;28;20053;-83
2023/05/09 05:17:20;;;;;;;16.23;10.93;;;;;;;;;;5037259;28;20096;-84
2023/05/09 05:19:45;;;;;;;16.27;11.43;;;;;;;;;;5037945;28;20033;-83
2023/05/09 05:22:12;;;;;;;12.82;8.80;;;;;;;;;;5041921;28;20013;-84
2023/05/09 05:24:40;;;;;;;15.95;9.50;;;;;;;;;;5025809;28;20436;-84
2023/05/09 05:27:05;;;;;;;11.52;8.65;;;;;;;;;;5043468;28;20045;-84
2023/05/09 05:29:31;;;;;;;10.88;8.23;;;;;;;;;;5042021;28;20057;-83
2023/05/09 05:31:56;;;;;;;11.65;8.88;;;;;;;;;;5038111;28;20482;-83
2023/05/09 05:34:22;;;;;;;13.43;9.10;;;;;;;;;;5036447;28;20041;-82
2023/05/09 05:36:47;;;;;;;12.90;8.50;;;;;;;;;;5029706;28;20049;-83
2023/05/09 05:39:13;;;;;;;13.32;9.00;;;;;;;;;;5033831;28;20423;-83
2023/05/09 05:41:38;;;;;;;13.70;8.80;;;;;;;;;;5041352;28;20053;-84
2023/05/09 05:44:05;;;;;;;11.63;8.75;;;;;;;;;;5041075;28;20055;-83
2023/05/09 05:46:32;;;;;;;12.68;8.98;;;;;;;;;;5037446;28;20029;-83
2023/05/09 05:48:58;;;;;;;14.20;9.43;;;;;;;;;;5022605;28;20040;-83
2023/05/09 05:51:24;;;;;;;11.43;8.57;;;;;;;;;;5031038;28;20059;-84
2023/05/09 05:53:50;;;;;;;12.10;8.40;;;;;;;;;;5035896;28;20041;-83
2023/05/09 05:56:16;;;;;;;15.48;8.90;;;;;;;;;;5040494;28;20037;-84
2023/05/09 05:58:42;;;;;;;12.70;8.77;;;;;;;;;;5020849;28;20026;-82
2023/05/09 06:01:08;;;;;;;12.45;8.55;;;;;;;;;;5038767;28;20026;-83
2023/05/09 06:03:34;;;;;;;11.88;8.50;;;;;;;;;;5033277;28;20026;-84
2023/05/09 06:06:03;;;;;;;13.77;9.63;;;;;;;;;;5039343;28;20033;-85
2023/05/09 06:08:28;;;;;;;14.00;9.38;;;;;;;;;;5040121;28;20037;-83
2023/05/09 06:10:54;;;;;;;11.77;9.52;;;;;;;;;;5034852;28;20060;-83
2023/05/09 06:13:19;;;;;;;10.80;5.97;;;;;;;;;;5023649;28;20053;-82
2023/05/09 06:15:50;;;;;;;10.93;7.90;;;;;;;;;;5029908;28;20038;-82
2023/05/09 06:18:15;;;;;;;10.70;8.07;;;;;;;;;;5027557;28;20102;-82
2023/05/09 06:20:41;;;;;;;12.18;8.73;;;;;;;;;;5033458;28;20025;-82
2023/05/09 06:23:06;;;;;;;11.77;8.75;;;;;;;;;;5035874;28;20061;-82
2023/05/09 06:25:32;;;;;;;13.73;8.75;;;;;;;;;;5021778;28;20065;-82
2023/05/09 06:27:57;;;;;;;13.35;8.88;;;;;;;;;;5021400;28;20113;-81
2023/05/09 06:30:23;;;;;;;17.27;9.77;;;;;;;;;;5043320;28;20053;-81
2023/05/09 06:32:48;;;;;;;10.05;8.75;;;;;;;;;;5044444;28;20052;-81
2023/05/09 06:35:14;;;;;;;11.68;9.10;;;;;;;;;;5043998;28;20025;-83
2023/05/09 06:37:40;;;;;;;10.85;9.00;;;;;;;;;;5037719;28;20030;-81
2023/05/09 06:40:06;;;;;;;11.30;8.95;;;;;;;;;;5042298;28;20038;-84
2023/05/09 06:42:32;;;;;;;11.10;8.65;;;;;;;;;;5034767;28;20112;-84
2023/05/09 06:44:58;;;;;;;12.10;8.68;;;;;;;;;;5036725;28;20091;-83
2023/05/09 06:47:23;;;;;;;12.80;8.95;;;;;;;;;;5041142;28;20050;-83
2023/05/09 06:49:48;;;;;;;12.50;9.00;;;;;;;;;;5028497;28;20403;-83
2023/05/09 06:52:14;;;;;;;28.40;9.80;;;;;;;;;;5036968;28;20029;-83
2023/05/09 06:54:40;;;;;;;17.70;9.50;;;;;;;;;;5036852;28;20045;-83
2023/05/09 06:57:06;;;;;;;12.98;9.25;;;;;;;;;;5032054;28;20046;-83
2023/05/09 06:59:32;;;;;;;14.02;9.65;;;;;;;;;;5026263;28;20054;-84
2023/05/09 07:01:58;;;;;;;15.00;9.88;;;;;;;;;;5036173;23;20121;-85
2023/05/09 07:04:23;;;;;;;15.30;10.05;;;;;;;;;;5031026;28;20064;-85
2023/05/09 07:06:49;;;;;;;16.17;10.73;;;;;;;;;;5026339;28;20045;-85
2023/05/09 07:09:17;;;;;;;18.90;11.38;;;;;;;;;;5031661;28;20189;-83
2023/05/09 07:11:44;;;;;;;16.80;11.75;;;;;;;;;;5036386;28;20065;-84
2023/05/09 07:14:09;;;;;;;17.33;12.20;;;;;;;;;;5029667;28;20570;-81
2023/05/09 07:16:35;;;;;;;78.05;14.95;;;;;;;;;;5013735;28;20506;-82
2023/05/09 07:19:00;;;;;;;14.20;10.45;;;;;;;;;;5014596;28;20029;-85
2023/05/09 07:21:26;;;;;;;15.55;10.50;;;;;;;;;;5019612;28;20479;-86
2023/05/09 07:23:51;;;;;;;14.55;10.48;;;;;;;;;;5038172;28;20065;-84
2023/05/09 07:26:17;;;;;;;19.25;10.00;;;;;;;;;;5026483;28;20032;-84
2023/05/09 07:28:42;;;;;;;13.57;10.30;;;;;;;;;;5012315;28;20034;-83
2023/05/09 07:31:08;;;;;;;15.75;8.90;;;;;;;;;;5029598;28;20511;-84
2023/05/09 07:33:34;;;;;;;16.52;10.10;;;;;;;;;;5014209;28;20042;-83
2023/05/09 07:36:00;;;;;;;12.20;9.57;;;;;;;;;;5013872;28;20562;-84
2023/05/09 07:38:25;;;;;;;12.35;9.38;;;;;;;;;;5011917;28;20048;-83
2023/05/09 07:40:52;;;;;;;27.60;10.20;;;;;;;;;;5013407;28;20088;-84
2023/05/09 07:43:17;;;;;;;14.15;9.70;;;;;;;;;;5047376;28;20033;-84
2023/05/09 07:45:44;;;;;;;14.10;10.68;;;;;;;;;;5027829;28;20056;-84
2023/05/09 07:48:09;;;;;;;13.65;10.32;;;;;;;;;;5024449;28;20037;-84
2023/05/09 07:50:35;;;;;;;20.48;9.40;;;;;;;;;;5022731;28;20037;-84
2023/05/09 07:53:00;;;;;;;12.52;9.95;;;;;;;;;;5019567;28;20554;-84
2023/05/09 07:55:26;;;;;;;15.68;10.07;;;;;;;;;;5015980;28;20034;-83
2023/05/09 07:57:51;;;;;;;12.50;10.05;;;;;;;;;;5028886;28;20038;-83
2023/05/09 08:00:22;;;;;;;13.90;9.85;;;;;;;;;;5012979;28;20518;-84
2023/05/09 08:02:48;;;;;;;24.50;10.93;;;;;;;;;;5011962;28;20091;-85
2023/05/09 08:05:14;;;;;;;14.30;10.55;;;;;;;;;;5010064;28;20137;-85
2023/05/09 08:07:39;;;;;;;14.57;9.38;;;;;;;;;;5020031;28;20687;-84
2023/05/09 08:10:06;;;;;;;13.50;11.07;;;;;;;;;;5020050;28;20034;-85
2023/05/09 08:12:31;;;;;;;14.10;10.43;;;;;;;;;;5015016;28;20041;-85
2023/05/09 08:14:56;;;;;;;16.08;10.23;;;;;;;;;;5014478;28;20038;-86
2023/05/09 08:17:22;;;;;;;13.82;10.32;;;;;;;;;;5034192;28;20107;-83
2023/05/09 08:19:47;;;;;;;19.70;9.38;;;;;;;;;;5008468;28;20026;-85
2023/05/09 08:22:17;;;;;;;12.98;10.48;;;;;;;;;;5013758;28;20037;-85
2023/05/09 08:24:44;;;;;;;13.80;9.18;;;;;;;;;;5014519;28;20522;-85
2023/05/09 08:27:12;;;;;;;16.20;9.88;;;;;;;;;;5014752;28;20034;-84
2023/05/09 08:29:37;;;;;;;20.73;10.50;;;;;;;;;;5013974;28;20084;-83
2023/05/09 08:32:03;;;;;;;13.43;10.40;;;;;;;;;;5011664;28;20586;-86
2023/05/09 08:34:33;;;;;;;13.10;10.15;;;;;;;;;;5029258;28;20021;-81
2023/05/09 08:37:01;;;;;;;13.88;10.40;;;;;;;;;;5027373;28;20114;-85
2023/05/09 08:39:27;;;;;;;14.30;9.98;;;;;;;;;;5020863;28;20037;-84
2023/05/09 08:41:59;;;;;;;12.52;9.57;;;;;;;;;;5021749;28;20049;-85
2023/05/09 08:44:25;;;;;;;12.55;9.43;;;;;;;;;;5018892;28;20499;-85
2023/05/09 08:46:53;;;;;;;12.25;9.55;;;;;;;;;;5013781;28;20037;-84
2023/05/09 08:49:20;;;;;;;20.67;9.80;;;;;;;;;;5012385;28;20052;-83
2023/05/09 08:51:47;;;;;;;14.27;9.80;;;;;;;;;;5013235;28;20116;-85
2023/05/09 08:54:13;;;;;;;12.48;9.65;;;;;;;;;;5013881;28;20249;-83
2023/05/09 08:56:40;;;;;;;14.18;9.43;;;;;;;;;;5014069;28;20045;-83
2023/05/09 08:59:05;;;;;;;13.93;9.50;;;;;;;;;;5027679;28;20145;-83
2023/05/09 09:01:32;;;;;;;13.27;9.98;;;;;;;;;;5013056;28;20137;-84
2023/05/09 09:03:59;;;;;;;11.07;9.43;;;;;;;;;;5004939;28;20113;-84
2023/05/09 09:06:27;;;;;;;13.90;9.82;;;;;;;;;;5045119;28;20040;-83
2023/05/09 09:08:54;;;;;;;14.25;10.05;;;;;;;;;;5023724;28;20034;-83
2023/05/09 09:11:21;;;;;;;11.88;9.38;;;;;;;;;;5020572;28;20033;-85
2023/05/09 09:13:50;;;;;;;14.25;9.68;;;;;;;;;;5027102;28;20109;-84
2023/05/09 09:16:21;;;;;;;14.27;9.88;;;;;;;;;;5016297;28;20060;-84
2023/05/09 09:18:46;;;;;;;14.55;10.75;;;;;;;;;;5026707;28;20594;-86
2023/05/09 09:21:16;;;;;;;12.35;10.20;;;;;;;;;;5011832;28;20136;-87
2023/05/09 09:23:42;;;;;;;15.73;9.68;;;;;;;;;;5011250;28;20105;-86
2023/05/09 09:26:08;;;;;;;13.18;10.65;;;;;;;;;;5022528;28;20074;-87
2023/05/09 09:28:34;;;;;;;14.32;10.85;;;;;;;;;;5048563;28;20041;-85
2023/05/09 09:31:00;;;;;;;16.75;10.77;;;;;;;;;;5024951;28;20033;-86
2023/05/09 09:33:27;;;;;;;15.90;10.82;;;;;;;;;;5029393;28;20040;-84
2023/05/09 09:35:55;;;;;;;17.35;10.85;;;;;;;;;;5023296;28;20042;-85
2023/05/09 09:38:22;;;;;;;16.27;10.27;;;;;;;;;;5035878;28;20128;-85
2023/05/09 09:40:51;;;;;;;14.52;10.18;;;;;;;;;;5049332;28;20037;-85
2023/05/09 09:43:17;;;;;;;22.23;9.43;;;;;;;;;;5034141;28;20056;-85
2023/05/09 09:45:42;;;;;;;15.63;10.45;;;;;;;;;;5018949;28;20835;-84
2023/05/09 09:48:08;;;;;;;14.52;9.98;;;;;;;;;;5018507;28;20103;-85
2023/05/09 09:50:33;;;;;;;12.43;10.20;;;;;;;;;;5018303;28;20522;-85
2023/05/09 09:52:59;;;;;;;13.25;10.18;;;;;;;;;;5016316;28;20042;-85
2023/05/09 09:55:25;;;;;;;14.35;10.50;;;;;;;;;;5013794;28;20044;-88
2023/05/09 09:57:52;;;;;;;14.57;10.50;;;;;;;;;;5025900;28;20053;-84
2023/05/09 10:00:24;;;;;;;16.77;10.20;;;;;;;;;;5013460;28;20037;-86
2023/05/09 10:02:51;;;;;;;13.80;9.98;;;;;;;;;;5015871;28;20034;-86
2023/05/09 10:05:21;;;;;;;16.50;9.88;;;;;;;;;;5003484;28;20049;-86
2023/05/09 10:07:55;;;;;;;13.00;9.80;;;;;;;;;;5020531;28;20095;-87
2023/05/09 10:10:21;;;;;;;13.10;10.25;;;;;;;;;;5025793;28;20033;-85
2023/05/09 10:12:49;;;;;;;13.68;10.10;;;;;;;;;;5032554;28;20093;-85
2023/05/09 10:15:20;;;;;;;15.25;10.35;;;;;;;;;;5035245;28;20034;-84
2023/05/09 10:17:47;;;;;;;13.68;10.27;;;;;;;;;;5017351;28;20037;-84
2023/05/09 10:20:13;;;;;;;11.32;9.40;;;;;;;;;;5018723;28;20498;-85
2023/05/09 10:22:39;;;;;;;12.45;9.50;;;;;;;;;;5016739;28;20487;-86
2023/05/09 10:25:13;;;;;;;13.40;9.63;;;;;;;;;;5041307;28;20040;-86
2023/05/09 10:27:43;;;;;;;13.40;8.50;;;;;;;;;;5027164;28;20042;-86
2023/05/09 10:30:13;;;;;;;10.77;9.10;;;;;;;;;;5032442;28;20029;-85
2023/05/09 10:32:52;;;;;;;13.82;9.13;;;;;;;;;;5013520;28;20117;-85
2023/05/09 10:35:29;;;;;;;11.40;8.02;;;;;;;;;;5038190;28;20087;-86
2023/05/09 10:37:56;;;;;;;10.55;8.50;;;;;;;;;;5015777;28;20402;-85
2023/05/09 10:40:22;;;;;;;13.13;9.50;;;;;;;;;;5025633;28;20038;-84
2023/05/09 10:42:48;;;;;;;10.38;8.82;;;;;;;;;;5032753;28;20097;-84
2023/05/09 10:45:13;;;;;;;17.25;9.43;;;;;;;;;;5048113;28;20076;-85
2023/05/09 10:47:41;;;;;;;13.45;8.88;;;;;;;;;;5014292;28;20112;-85
2023/05/09 10:50:08;;;;;;;12.43;8.90;;;;;;;;;;5024833;28;20101;-85
2023/05/09 10:52:54;;;;;;;12.27;8.93;;;;;;;;;;5035404;28;20084;-85
2023/05/09 10:55:19;;;;;;;11.23;9.00;;;;;;;;;;5022665;28;20056;-85
2023/05/09 10:57:52;;;;;;;10.95;8.38;;;;;;;;;;5017790;28;20503;-84
2023/05/09 11:00:23;;;;;;;16.67;8.88;;;;;;;;;;5034176;28;20034;-86
2023/05/09 11:03:06;;;;;;;14.00;8.30;;;;;;;;;;5030590;28;20041;-86
2023/05/09 11:05:38;;;;;;;12.25;8.40;;;;;;;;;;5042078;28;20088;-88
2023/05/09 11:08:20;;;;;;;10.60;8.00;;;;;;;;;;5007100;28;20412;-87
2023/05/09 11:10:46;;;;;;;9.38;8.02;;;;;;;;;;5018251;28;20407;-87
2023/05/09 11:13:11;;;;;;;11.82;7.75;;;;;;;;;;5030396;28;20038;-87
2023/05/09 11:15:50;;;;;;;12.38;8.00;;;;;;;;;;5046357;28;20041;-86
2023/05/09 11:18:15;;;;;;;12.85;7.85;;;;;;;;;;5019954;28;20045;-86
2023/05/09 11:20:43;;;;;;;10.88;7.82;;;;;;;;;;5027697;28;20034;-85
2023/05/09 11:23:11;;;;;;;17.58;7.75;;;;;;;;;;5031320;28;20056;-87
2023/05/09 11:25:41;;;;;;;11.38;8.05;;;;;;;;;;5031994;28;20038;-85
2023/05/09 11:28:06;;;;;;;8.90;7.63;;;;;;;;;;5021239;28;20073;-84
2023/05/09 11:30:39;;;;;;;32.38;9.93;;;;;;;;;;5017721;28;20038;-86
2023/05/09 11:33:05;;;;;;;89.90;12.48;;;;;;;;;;5017519;28;20037;-87
2023/05/09 11:35:33;;;;;;;10.20;7.07;;;;;;;;;;5017481;28;20042;-87
2023/05/09 11:38:04;;;;;;;10.70;6.82;;;;;;;;;;5017809;28;20125;-86
2023/05/09 11:40:31;;;;;;;14.07;7.75;;;;;;;;;;5019017;28;20545;-85
2023/05/09 11:42:58;;;;;;;14.45;7.55;;;;;;;;;;5002754;28;20128;-86
2023/05/09 11:45:26;;;;;;;15.45;7.20;;;;;;;;;;5018866;28;20041;-86
2023/05/09 11:47:52;;;;;;;19.40;11.90;;;;;;;;;;5030536;28;20174;-84
2023/05/09 11:50:19;;;;;;;14.85;7.22;;;;;;;;;;5030208;28;20124;-83
2023/05/09 11:52:46;;;;;;;12.20;7.35;;;;;;;;;;5048869;28;20038;-85
2023/05/09 11:55:17;;;;;;;11.60;7.38;;;;;;;;;;5017041;28;20480;-85
2023/05/09 11:57:48;;;;;;;10.50;6.95;;;;;;;;;;5021950;28;20041;-88
2023/05/09 12:00:22;;;;;;;14.80;6.78;;;;;;;;;;5014088;28;20045;-85
2023/05/09 12:02:48;;;;;;;12.10;7.22;;;;;;;;;;5026023;28;20034;-85
2023/05/09 12:05:18;;;;;;;14.50;7.20;;;;;;;;;;5014445;28;20097;-85
2023/05/09 12:07:45;;;;;;;10.38;6.65;;;;;;;;;;5014206;28;20411;-86
2023/05/09 12:10:12;;;;;;;8.65;6.47;;;;;;;;;;5027072;28;20488;-85
2023/05/09 12:12:49;;;;;;;11.13;6.10;;;;;;;;;;5015857;28;20037;-85
2023/05/09 12:15:15;;;;;;;9.32;5.88;;;;;;;;;;5021467;28;20033;-86
2023/05/09 12:17:42;;;;;;;14.63;6.65;;;;;;;;;;5033401;28;20026;-86
2023/05/09 12:20:08;;;;;;;9.60;5.63;;;;;;;;;;5026289;28;20035;-83
2023/05/09 12:22:36;;;;;;;15.85;5.53;;;;;;;;;;5036572;28;20030;-90
2023/05/09 12:25:06;;;;;;;6.60;4.65;;;;;;;;;;5024104;28;20510;-88
2023/05/09 12:27:32;;;;;;;6.60;4.88;;;;;;;;;;5014957;28;20129;-87
2023/05/09 12:30:00;;;;;;;8.25;4.38;;;;;;;;;;5022938;28;20241;-86
2023/05/09 12:32:30;;;;;;;8.43;5.07;;;;;;;;;;5016181;28;20030;-85
2023/05/09 12:34:56;;;;;;;9.00;5.20;;;;;;;;;;5017249;28;20068;-85
2023/05/09 12:37:22;;;;;;;7.45;5.47;;;;;;;;;;5013174;28;20120;-84
2023/05/09 12:40:05;;;;;;;6.65;4.60;;;;;;;;;;5027233;28;20033;-84
2023/05/09 12:42:31;;;;;;;6.72;5.00;;;;;;;;;;5026308;28;20112;-86
2023/05/09 12:44:57;;;;;;;8.43;5.32;;;;;;;;;;5022801;28;20173;-88
2023/05/09 12:47:26;;;;;;;18.95;5.53;;;;;;;;;;5017029;28;20129;-86
2023/05/09 12:49:51;;;;;;;9.00;5.45;;;;;;;;;;5017338;28;20037;-86
2023/05/09 12:52:19;;;;;;;12.45;5.53;;;;;;;;;;5016428;28;20038;-86
2023/05/09 12:54:47;;;;;;;7.38;5.70;;;;;;;;;;5026703;28;20038;-87
2023/05/09 12:57:21;;;;;;;10.27;6.20;;;;;;;;;;5014854;28;20049;-85
2023/05/09 12:59:47;;;;;;;6.78;5.15;;;;;;;;;;4989387;28;20037;-85
2023/05/09 13:02:13;;;;;;;24.23;8.50;;;;;;;;;;5010220;28;20030;-86
2023/05/09 13:04:38;;;;;;;7.53;5.43;;;;;;;;;;5029419;28;20116;-87
2023/05/09 13:07:09;;;;;;;9.23;5.10;;;;;;;;;;5026424;28;20045;-85
2023/05/09 13:09:35;;;;;;;6.45;5.28;;;;;;;;;;5021161;28;20065;-86
2023/05/09 13:12:08;;;;;;;8.77;4.60;;;;;;;;;;5016748;28;20411;-85
2023/05/09 13:14:34;;;;;;;6.80;4.50;;;;;;;;;;5015331;28;20049;-86
2023/05/09 13:17:00;;;;;;;6.43;4.72;;;;;;;;;;5020724;28;20408;-85
2023/05/09 13:19:26;;;;;;;8.45;4.55;;;;;;;;;;5025555;28;20057;-86
2023/05/09 13:21:53;;;;;;;7.72;5.20;;;;;;;;;;5026551;28;20046;-85
2023/05/09 13:24:19;;;;;;;8.57;4.40;;;;;;;;;;5024481;28;20505;-85
2023/05/09 13:26:47;;;;;;;9.57;4.47;;;;;;;;;;5036017;28;20045;-86
2023/05/09 13:29:13;;;;;;;5.68;4.43;;;;;;;;;;5021729;28;20068;-85
2023/05/09 13:31:38;;;;;;;5.70;4.60;;;;;;;;;;5013842;28;20072;-85
2023/05/09 13:34:04;;;;;;;6.00;4.38;;;;;;;;;;5016865;28;20026;-85
2023/05/09 13:36:31;;;;;;;7.13;4.25;;;;;;;;;;5028973;28;20060;-86
2023/05/09 13:38:56;;;;;;;6.00;4.20;;;;;;;;;;5013579;28;20034;-86
2023/05/09 13:41:22;;;;;;;7.22;4.10;;;;;;;;;;5041328;22;20076;-83
2023/05/09 13:43:48;;;;;;;5.55;3.97;;;;;;;;;;5016399;28;20046;-84
2023/05/09 13:46:14;;;;;;;6.32;4.80;;;;;;;;;;5031749;28;20044;-84
2023/05/09 13:48:40;;;;;;;6.18;3.85;;;;;;;;;;5031769;28;20064;-84
2023/05/09 13:51:06;;;;;;;4.40;3.55;;;;;;;;;;5051354;28;20467;-84
2023/05/09 13:53:32;;;;;;;6.80;4.13;;;;;;;;;;5033750;28;20033;-84
2023/05/09 13:55:57;;;;;;;6.13;3.97;;;;;;;;;;5040271;28;20056;-84
2023/05/09 13:58:23;;;;;;;9.13;3.80;;;;;;;;;;5038430;28;20045;-85
2023/05/09 14:00:49;;;;;;;7.13;4.10;;;;;;;;;;5028775;28;20038;-84
2023/05/09 14:03:14;;;;;;;7.50;3.72;;;;;;;;;;5018618;28;20041;-84
2023/05/09 14:05:41;;;;;;;9.27;4.00;;;;;;;;;;5040508;28;20267;-84
2023/05/09 14:08:06;;;;;;;7.05;4.00;;;;;;;;;;5043919;28;20045;-85
2023/05/09 14:10:32;;;;;;;4.97;3.72;;;;;;;;;;5041195;28;20042;-85
2023/05/09 14:12:58;;;;;;;8.05;4.10;;;;;;;;;;5040835;28;20101;-84
2023/05/09 14:15:23;;;;;;;6.00;3.70;;;;;;;;;;5029081;28;20049;-85
2023/05/09 14:17:49;;;;;;;6.15;3.88;;;;;;;;;;5023998;28;20034;-83
2023/05/09 14:20:15;;;;;;;5.32;3.97;;;;;;;;;;5022056;28;20064;-84
2023/05/09 14:22:40;;;;;;;5.72;3.70;;;;;;;;;;5036316;28;20030;-83
2023/05/09 14:25:06;;;;;;;6.50;3.38;;;;;;;;;;5038789;28;20041;-84
2023/05/09 14:27:35;;;;;;;6.20;3.60;;;;;;;;;;5032249;28;20044;-85
2023/05/09 14:30:05;;;;;;;6.75;4.00;;;;;;;;;;5027933;28;20506;-85